createdAt,value
2018-02-18T00:01:59.166Z,19.00
2018-02-18T00:04:27.443Z,23.20
2018-02-18T00:06:55.706Z,18.67
2018-02-18T00:09:23.971Z,20.15
2018-02-18T00:11:52.240Z,19.95
2018-02-18T00:14:23.870Z,20.30
2018-02-18T00:16:52.143Z,18.12
2018-02-18T00:19:20.405Z,20.70
2018-02-18T00:21:48.686Z,19.48
2018-02-18T00:24:16.942Z,17.85
2018-02-18T00:26:45.251Z,19.85
2018-02-18T00:29:13.500Z,21.20
2018-02-18T00:31:41.780Z,19.43
2018-02-18T00:34:10.037Z,20.15
2018-02-18T00:36:39.077Z,19.08
2018-02-18T00:39:07.337Z,20.55
2018-02-18T00:41:35.615Z,21.42
2018-02-18T00:44:03.879Z,19.75
2018-02-18T00:46:32.924Z,18.77
2018-02-18T00:49:01.195Z,19.08
2018-02-18T00:51:29.494Z,19.23
2018-02-18T00:53:57.750Z,20.33
2018-02-18T00:56:26.061Z,17.37
2018-02-18T00:58:54.315Z,18.00
2018-02-18T01:01:22.584Z,20.30
2018-02-18T01:03:50.840Z,21.17
2018-02-18T01:06:19.107Z,18.73
2018-02-18T01:08:47.466Z,19.12
2018-02-18T01:11:15.734Z,18.55
2018-02-18T01:13:44.018Z,19.15
2018-02-18T01:16:12.293Z,19.52
2018-02-18T01:18:40.583Z,20.80
2018-02-18T01:21:08.854Z,19.67
2018-02-18T01:23:37.113Z,19.20
2018-02-18T01:26:05.382Z,19.50
2018-02-18T01:28:34.415Z,18.95
2018-02-18T01:31:02.695Z,19.30
2018-02-18T01:33:30.975Z,20.62
2018-02-18T01:35:59.277Z,18.90
2018-02-18T01:38:27.551Z,17.65
2018-02-18T01:40:55.850Z,19.40
2018-02-18T01:43:24.130Z,20.70
2018-02-18T01:45:52.398Z,21.50
2018-02-18T01:48:20.667Z,20.25
2018-02-18T01:50:48.923Z,20.55
2018-02-18T01:53:17.196Z,17.27
2018-02-18T01:55:46.250Z,18.05
2018-02-18T01:58:14.546Z,18.52
2018-02-18T02:00:42.814Z,19.45
2018-02-18T02:03:11.070Z,19.40
2018-02-18T02:05:39.328Z,17.83
2018-02-18T02:08:08.568Z,20.60
2018-02-18T02:10:36.821Z,19.67
2018-02-18T02:13:05.100Z,20.35
2018-02-18T02:15:33.381Z,19.30
2018-02-18T02:18:01.663Z,20.40
2018-02-18T02:20:30.715Z,19.95
2018-02-18T02:22:59.064Z,19.77
2018-02-18T02:25:27.342Z,21.62
2018-02-18T02:27:55.611Z,20.55
2018-02-18T02:30:23.867Z,20.48
2018-02-18T02:32:52.905Z,19.25
2018-02-18T02:35:21.684Z,22.48
2018-02-18T02:37:49.956Z,18.35
2018-02-18T02:40:18.992Z,20.65
2018-02-18T02:42:47.379Z,20.92
2018-02-18T02:45:15.631Z,21.10
2018-02-18T02:47:43.902Z,19.45
2018-02-18T02:50:12.218Z,20.10
2018-02-18T02:52:40.597Z,18.35
2018-02-18T02:55:08.875Z,19.20
2018-02-18T02:57:37.153Z,21.45
2018-02-18T03:00:05.488Z,19.62
2018-02-18T03:02:33.820Z,22.80
2018-02-18T03:05:02.083Z,21.50
2018-02-18T03:07:30.358Z,23.77
2018-02-18T03:09:58.620Z,21.60
2018-02-18T03:12:27.751Z,21.02
2018-02-18T03:14:56.007Z,21.87
2018-02-18T03:17:24.273Z,22.13
2018-02-18T03:19:53.306Z,23.27
2018-02-18T03:22:21.602Z,21.65
2018-02-18T03:24:49.859Z,21.95
2018-02-18T03:27:18.185Z,22.08
2018-02-18T03:29:46.441Z,20.27
2018-02-18T03:32:14.705Z,21.70
2018-02-18T03:34:43.017Z,21.48
2018-02-18T03:37:11.287Z,20.10
2018-02-18T03:39:39.582Z,20.40
2018-02-18T03:42:07.855Z,21.75
2018-02-18T03:44:36.119Z,24.12
2018-02-18T03:47:04.391Z,20.90
2018-02-18T03:49:32.651Z,22.85
2018-02-18T03:52:01.716Z,21.45
2018-02-18T03:54:30.010Z,20.90
2018-02-18T03:56:58.383Z,23.75
2018-02-18T03:59:26.659Z,23.15
2018-02-18T04:01:54.950Z,21.77
2018-02-18T04:04:23.220Z,21.30
2018-02-18T04:06:51.502Z,20.50
2018-02-18T04:09:19.767Z,22.25
2018-02-18T04:11:48.063Z,21.35
2018-02-18T04:14:16.350Z,22.30
2018-02-18T04:16:44.643Z,21.60
2018-02-18T04:19:12.925Z,23.73
2018-02-18T04:21:41.829Z,23.48
2018-02-18T04:24:10.913Z,23.60
2018-02-18T04:26:39.195Z,19.83
2018-02-18T04:29:07.500Z,21.58
2018-02-18T04:31:35.861Z,22.40
2018-02-18T04:34:04.164Z,19.58
2018-02-18T04:36:32.555Z,23.25
2018-02-18T04:39:00.849Z,19.37
2018-02-18T04:41:29.901Z,24.60
2018-02-18T04:43:58.174Z,22.65
2018-02-18T04:46:26.463Z,21.98
2018-02-18T04:48:54.754Z,23.20
2018-02-18T04:51:23.046Z,22.20
2018-02-18T04:53:51.332Z,22.13
2018-02-18T04:56:20.075Z,21.15
2018-02-18T04:58:48.370Z,22.83
2018-02-18T05:01:16.639Z,21.90
2018-02-18T05:03:44.919Z,21.33
2018-02-18T05:06:13.208Z,21.55
2018-02-18T05:08:41.520Z,23.60
2018-02-18T05:11:09.777Z,24.92
2018-02-18T05:13:38.048Z,24.17
2018-02-18T05:16:06.343Z,23.00
2018-02-18T05:18:34.609Z,24.17
2018-02-18T05:21:02.910Z,22.00
2018-02-18T05:23:31.200Z,21.62
2018-02-18T05:25:59.483Z,24.92
2018-02-18T05:28:27.845Z,24.75
2018-02-18T05:30:56.104Z,25.15
2018-02-18T05:33:24.379Z,24.50
2018-02-18T05:35:52.640Z,22.50
2018-02-18T05:38:21.683Z,25.65
2018-02-18T05:40:49.945Z,23.70
2018-02-18T05:43:19.878Z,24.27
2018-02-18T05:45:48.136Z,24.60
2018-02-18T05:48:17.193Z,27.30
2018-02-18T05:50:46.223Z,24.67
2018-02-18T05:53:15.254Z,22.87
2018-02-18T05:55:43.542Z,23.98
2018-02-18T05:58:11.790Z,26.37
2018-02-18T06:00:40.825Z,23.60
2018-02-18T06:03:09.096Z,25.15
2018-02-18T06:05:37.355Z,26.27
2018-02-18T06:08:05.633Z,25.10
2018-02-18T06:10:34.666Z,24.50
2018-02-18T06:13:02.971Z,25.95
2018-02-18T06:15:31.256Z,24.12
2018-02-18T06:17:59.623Z,22.87
2018-02-18T06:20:27.882Z,24.98
2018-02-18T06:22:56.163Z,25.50
2018-02-18T06:25:24.417Z,26.40
2018-02-18T06:27:53.462Z,24.00
2018-02-18T06:30:21.754Z,23.92
2018-02-18T06:32:50.049Z,24.70
2018-02-18T06:35:18.303Z,24.70
2018-02-18T06:37:46.577Z,22.87
2018-02-18T06:40:14.826Z,23.95
2018-02-18T06:42:43.868Z,24.45
2018-02-18T06:45:12.123Z,24.25
2018-02-18T06:47:40.449Z,25.25
2018-02-18T06:50:08.814Z,23.75
2018-02-18T06:52:37.410Z,25.90
2018-02-18T06:55:05.705Z,23.15
2018-02-18T06:57:34.074Z,26.25
2018-02-18T07:00:02.342Z,23.25
2018-02-18T07:02:30.778Z,23.33
2018-02-18T07:04:59.460Z,24.75
2018-02-18T07:07:27.887Z,23.23
2018-02-18T07:09:56.161Z,23.10
2018-02-18T07:12:24.505Z,24.15
2018-02-18T07:14:52.758Z,25.50
2018-02-18T07:17:21.030Z,26.90
2018-02-18T07:19:49.343Z,26.80
2018-02-18T07:22:17.574Z,22.60
2018-02-18T07:24:45.859Z,25.30
2018-02-18T07:27:14.122Z,25.90
2018-02-18T07:29:42.392Z,23.38
2018-02-18T07:32:11.443Z,22.47
2018-02-18T07:34:39.701Z,21.17
2018-02-18T07:37:07.954Z,21.37
2018-02-18T07:39:37.008Z,22.63
2018-02-18T07:42:05.261Z,23.07
2018-02-18T07:44:33.545Z,20.77
2018-02-18T07:47:01.799Z,21.50
2018-02-18T07:49:30.835Z,22.20
2018-02-18T07:51:59.081Z,22.70
2018-02-18T07:54:27.367Z,22.03
2018-02-18T07:56:55.678Z,21.47
2018-02-18T07:59:23.950Z,21.50
2018-02-18T08:01:52.221Z,21.23
2018-02-18T08:04:20.495Z,20.33
2018-02-18T08:06:48.790Z,21.53
2018-02-18T08:09:17.070Z,21.67
2018-02-18T08:11:45.330Z,21.53
2018-02-18T08:14:13.598Z,22.77
2018-02-18T08:16:42.625Z,21.97
2018-02-18T08:19:11.116Z,20.80
2018-02-18T08:21:39.374Z,22.90
2018-02-18T08:24:07.691Z,22.60
2018-02-18T08:26:35.959Z,22.40
2018-02-18T08:29:04.256Z,23.73
2018-02-18T08:31:32.517Z,25.17
2018-02-18T08:34:00.774Z,30.30
2018-02-18T08:36:29.037Z,27.30
2018-02-18T08:38:58.302Z,23.50
2018-02-18T08:41:26.566Z,24.10
2018-02-18T08:43:54.839Z,25.10
2018-02-18T08:46:23.097Z,24.80
2018-02-18T08:48:52.121Z,23.93
2018-02-18T08:51:20.488Z,23.17
2018-02-18T08:53:48.766Z,24.40
2018-02-18T08:56:17.791Z,24.63
2018-02-18T08:58:46.062Z,25.23
2018-02-18T09:01:14.310Z,25.60
2018-02-18T09:03:43.351Z,27.53
2018-02-18T09:06:11.612Z,25.23
2018-02-18T09:08:39.892Z,24.90
2018-02-18T09:11:08.919Z,25.77
2018-02-18T09:13:37.194Z,25.00
2018-02-18T09:16:05.446Z,26.63
2018-02-18T09:18:33.747Z,24.60
2018-02-18T09:21:02.021Z,25.43
2018-02-18T09:23:30.292Z,25.83
2018-02-18T09:25:59.306Z,26.50
2018-02-18T09:28:27.578Z,24.13
2018-02-18T09:30:55.831Z,25.73
2018-02-18T09:33:24.104Z,27.87
2018-02-18T09:35:52.362Z,26.60
2018-02-18T09:38:20.637Z,25.13
2018-02-18T09:40:48.912Z,27.27
2018-02-18T09:43:17.157Z,27.97
2018-02-18T09:45:45.591Z,26.43
2018-02-18T09:48:13.852Z,26.97
2018-02-18T09:50:42.107Z,27.77
2018-02-18T09:53:10.382Z,27.50
2018-02-18T09:55:39.411Z,27.33
2018-02-18T09:58:07.672Z,27.00
2018-02-18T10:00:35.938Z,27.37
2018-02-18T10:03:05.056Z,25.53
2018-02-18T10:05:33.354Z,27.17
2018-02-18T10:08:01.625Z,26.73
2018-02-18T10:10:29.898Z,25.73
2018-02-18T10:12:58.160Z,25.67
2018-02-18T10:15:27.211Z,27.40
2018-02-18T10:17:55.484Z,25.70
2018-02-18T10:20:23.771Z,25.20
2018-02-18T10:22:52.161Z,27.30
2018-02-18T10:25:20.493Z,26.37
2018-02-18T10:27:48.718Z,24.93
2018-02-18T10:30:17.001Z,25.47
2018-02-18T10:32:45.247Z,25.73
2018-02-18T10:35:13.526Z,26.30
2018-02-18T10:37:41.806Z,24.43
2018-02-18T10:40:10.834Z,26.10
2018-02-18T10:42:39.094Z,25.70
2018-02-18T10:45:07.366Z,27.60
2018-02-18T10:47:35.645Z,26.10
2018-02-18T10:50:03.962Z,25.67
2018-02-18T10:52:32.221Z,28.57
2018-02-18T10:55:00.528Z,27.30
2018-02-18T10:57:28.778Z,26.47
2018-02-18T10:59:57.050Z,27.03
2018-02-18T11:02:26.086Z,26.17
2018-02-18T11:04:54.367Z,29.50
2018-02-18T11:07:33.622Z,25.97
2018-02-18T11:10:07.454Z,26.07
2018-02-18T11:12:42.469Z,25.40
2018-02-18T11:15:11.083Z,28.13
2018-02-18T11:17:40.228Z,25.43
2018-02-18T11:20:09.007Z,26.33
2018-02-18T11:22:38.284Z,25.50
2018-02-18T11:25:06.904Z,26.87
2018-02-18T11:27:35.228Z,28.20
2018-02-18T11:30:03.499Z,26.27
2018-02-18T11:32:31.783Z,26.00
2018-02-18T11:35:00.055Z,26.43
2018-02-18T11:37:28.306Z,26.83
2018-02-18T11:39:56.586Z,26.73
2018-02-18T11:42:24.856Z,27.70
2018-02-18T11:44:53.879Z,27.30
2018-02-18T11:47:22.142Z,25.40
2018-02-18T11:49:51.176Z,26.37
2018-02-18T11:52:19.482Z,26.30
2018-02-18T11:54:47.699Z,27.10
2018-02-18T11:57:16.717Z,24.30
2018-02-18T11:59:44.990Z,27.33
2018-02-18T12:02:13.246Z,26.07
2018-02-18T12:04:42.292Z,25.67
2018-02-18T12:07:10.551Z,25.47
2018-02-18T12:09:38.826Z,24.60
2018-02-18T12:12:07.103Z,25.40
2018-02-18T12:14:36.167Z,25.67
2018-02-18T12:17:04.434Z,25.33
2018-02-18T12:19:32.713Z,27.47
2018-02-18T12:22:01.004Z,25.20
2018-02-18T12:24:29.273Z,26.97
2018-02-18T12:26:57.526Z,24.97
2018-02-18T12:29:25.804Z,25.37
2018-02-18T12:31:54.927Z,24.90
2018-02-18T12:34:23.190Z,24.50
2018-02-18T12:36:51.454Z,22.70
2018-02-18T12:39:19.755Z,24.17
2018-02-18T12:41:48.016Z,22.73
2018-02-18T12:44:17.066Z,26.13
2018-02-18T12:46:45.331Z,25.03
2018-02-18T12:49:13.602Z,24.50
2018-02-18T12:51:41.867Z,25.00
2018-02-18T12:54:10.143Z,24.13
2018-02-18T12:56:39.162Z,25.30
2018-02-18T12:59:07.437Z,25.73
2018-02-18T13:01:35.694Z,25.17
2018-02-18T13:04:04.747Z,24.97
2018-02-18T13:06:33.022Z,21.60
2018-02-18T13:09:02.251Z,23.30
2018-02-18T13:11:30.535Z,21.10
2018-02-18T13:13:58.819Z,22.00
2018-02-18T13:16:27.096Z,22.17
2018-02-18T13:18:56.862Z,21.00
2018-02-18T13:21:25.148Z,22.50
2018-02-18T13:23:53.402Z,21.43
2018-02-18T13:26:22.440Z,23.00
2018-02-18T13:28:50.697Z,23.40
2018-02-18T13:31:18.977Z,22.30
2018-02-18T13:33:47.415Z,21.63
2018-02-18T13:36:15.952Z,23.43
2018-02-18T13:38:44.199Z,22.40
2018-02-18T13:41:13.240Z,22.90
2018-02-18T13:43:41.499Z,21.07
2018-02-18T13:46:09.778Z,20.60
2018-02-18T13:48:39.935Z,21.53
2018-02-18T13:51:08.222Z,21.70
2018-02-18T13:53:36.483Z,20.60
2018-02-18T13:56:04.770Z,22.53
2018-02-18T13:58:33.062Z,21.80
2018-02-18T14:01:01.334Z,21.17
2018-02-18T14:03:29.595Z,20.70
2018-02-18T14:05:58.637Z,21.00
2018-02-18T14:08:26.890Z,20.87
2018-02-18T14:10:55.159Z,21.80
2018-02-18T14:13:24.200Z,18.30
2018-02-18T14:15:52.472Z,19.33
2018-02-18T14:18:20.725Z,20.50
2018-02-18T14:23:23.573Z,21.20
2018-02-18T14:25:51.855Z,21.50
2018-02-18T14:28:20.223Z,22.90
2018-02-18T14:30:48.537Z,21.13
2018-02-18T14:33:16.796Z,21.27
2018-02-18T14:35:45.070Z,20.97
2018-02-18T14:38:13.323Z,20.93
2018-02-18T14:40:41.601Z,19.93
2018-02-18T14:43:22.572Z,21.07
2018-02-18T14:46:03.594Z,20.67
2018-02-18T14:48:43.869Z,21.20
2018-02-18T14:51:23.939Z,21.00
2018-02-18T14:54:04.151Z,19.97
2018-02-18T14:56:44.375Z,17.83
2018-02-18T14:59:14.153Z,19.23
2018-02-18T15:01:42.427Z,19.57
2018-02-18T15:04:10.756Z,18.50
2018-02-18T15:06:38.994Z,17.57
2018-02-18T15:09:07.254Z,18.07
2018-02-18T15:11:35.729Z,16.90
2018-02-18T15:14:05.035Z,18.30
2018-02-18T15:16:33.336Z,16.43
2018-02-18T15:19:01.657Z,20.07
2018-02-18T15:21:29.909Z,18.10
2018-02-18T15:23:58.168Z,18.37
2018-02-18T15:26:26.426Z,17.73
2018-02-18T15:28:55.475Z,19.93
2018-02-18T15:31:23.743Z,18.57
2018-02-18T15:33:51.989Z,18.20
2018-02-18T15:36:21.063Z,17.33
2018-02-18T15:38:49.345Z,18.07
2018-02-18T15:41:17.598Z,18.33
2018-02-18T15:43:45.842Z,19.10
2018-02-18T15:46:14.108Z,18.23
2018-02-18T15:48:43.132Z,17.80
2018-02-18T15:51:11.391Z,17.07
2018-02-18T15:53:40.427Z,17.37
2018-02-18T15:56:09.554Z,17.63
2018-02-18T15:58:37.808Z,18.37
2018-02-18T16:01:06.127Z,19.53
2018-02-18T16:03:34.367Z,17.50
2018-02-18T16:06:02.651Z,18.60
2018-02-18T16:08:30.899Z,19.20
2018-02-18T16:10:59.312Z,19.20
2018-02-18T16:13:27.561Z,20.80
2018-02-18T16:15:56.906Z,19.80
2018-02-18T16:18:25.155Z,20.10
2018-02-18T16:20:53.427Z,21.30
2018-02-18T16:23:23.263Z,19.90
2018-02-18T16:25:51.538Z,26.03
2018-02-18T16:28:19.854Z,27.40
2018-02-18T16:30:48.127Z,26.57
2018-02-18T16:33:16.414Z,26.60
2018-02-18T16:35:44.832Z,27.37
2018-02-18T16:38:13.060Z,25.70
2018-02-18T16:40:41.331Z,25.00
2018-02-18T16:43:10.335Z,24.37
2018-02-18T16:45:38.610Z,23.13
2018-02-18T16:48:06.876Z,24.70
2018-02-18T16:50:35.921Z,24.50
2018-02-18T16:53:04.167Z,24.80
2018-02-18T16:55:32.434Z,25.03
2018-02-18T16:58:01.455Z,24.37
2018-02-18T17:00:29.705Z,23.50
2018-02-18T17:02:58.743Z,25.57
2018-02-18T17:05:26.994Z,24.40
2018-02-18T17:07:55.254Z,21.80
2018-02-18T17:10:24.432Z,23.87
2018-02-18T17:12:52.677Z,23.70
2018-02-18T17:15:20.941Z,22.73
2018-02-18T17:17:49.974Z,23.07
2018-02-18T17:20:18.214Z,24.20
2018-02-18T17:22:47.423Z,23.23
2018-02-18T17:25:15.677Z,24.30
2018-02-18T17:27:44.119Z,24.90
2018-02-18T17:30:12.371Z,21.90
2018-02-18T17:32:40.634Z,22.50
2018-02-18T17:35:09.897Z,20.90
2018-02-18T17:37:38.186Z,22.03
2018-02-18T17:40:06.455Z,22.90
2018-02-18T17:42:34.751Z,22.23
2018-02-18T17:45:03.013Z,22.53
2018-02-18T17:47:31.285Z,19.27
2018-02-18T17:49:59.584Z,17.60
2018-02-18T17:52:27.839Z,19.37
2018-02-18T17:54:56.099Z,20.37
2018-02-18T17:57:25.135Z,18.93
2018-02-18T17:59:53.378Z,18.48
2018-02-18T18:02:22.406Z,17.40
2018-02-18T18:04:50.654Z,19.23
2018-02-18T18:07:19.701Z,16.83
2018-02-18T18:09:47.980Z,16.30
2018-02-18T18:12:16.802Z,15.77
2018-02-18T18:14:46.609Z,17.80
2018-02-18T18:17:14.874Z,17.77
2018-02-18T18:19:43.128Z,18.23
2018-02-18T18:22:11.401Z,18.77
2018-02-18T18:24:39.644Z,18.20
2018-02-18T18:27:07.901Z,19.07
2018-02-18T18:29:36.202Z,21.00
2018-02-18T18:32:04.482Z,18.10
2018-02-18T18:34:32.762Z,17.67
2018-02-18T18:37:01.118Z,17.30
2018-02-18T18:39:29.405Z,17.20
2018-02-18T18:41:57.691Z,19.00
2018-02-18T18:44:25.974Z,17.60
2018-02-18T18:46:54.214Z,18.20
2018-02-18T18:49:22.465Z,18.23
2018-02-18T18:51:50.734Z,18.67
2018-02-18T18:54:18.980Z,19.63
2018-02-18T18:56:47.258Z,19.63
2018-02-18T18:59:15.559Z,19.10
2018-02-18T19:01:43.838Z,18.53
2018-02-18T19:04:12.094Z,21.03
2018-02-18T19:06:40.365Z,17.43
2018-02-18T19:09:08.682Z,19.97
2018-02-18T19:11:36.995Z,18.37
2018-02-18T19:14:05.240Z,17.90
2018-02-18T19:16:33.516Z,17.60
2018-02-18T19:19:01.802Z,19.00
2018-02-18T19:21:30.080Z,20.07
2018-02-18T19:23:58.339Z,19.37
2018-02-18T19:26:26.599Z,17.67
2018-02-18T19:28:55.631Z,17.37
2018-02-18T19:31:25.936Z,18.03
2018-02-18T19:33:54.945Z,16.77
2018-02-18T19:36:23.216Z,17.57
2018-02-18T19:38:51.478Z,17.10
2018-02-18T19:41:20.523Z,17.47
2018-02-18T19:43:48.787Z,18.97
2018-02-18T19:46:17.062Z,17.00
2018-02-18T19:48:46.069Z,18.63
2018-02-18T19:51:14.350Z,17.97
2018-02-18T19:53:42.591Z,18.07
2018-02-18T19:56:10.942Z,18.10
2018-02-18T19:58:39.226Z,18.50
2018-02-18T20:01:07.502Z,20.90
2018-02-18T20:03:37.280Z,19.37
2018-02-18T20:06:06.313Z,18.83
2018-02-18T20:08:34.590Z,18.30
2018-02-18T20:11:02.890Z,19.30
2018-02-18T20:13:31.177Z,19.10
2018-02-18T20:15:59.535Z,20.30
2018-02-18T20:18:27.830Z,19.80
2018-02-18T20:20:56.102Z,17.40
2018-02-18T20:23:24.430Z,18.90
2018-02-18T20:25:52.673Z,17.80
2018-02-18T20:28:20.958Z,19.63
2018-02-18T20:30:49.251Z,20.33
2018-02-18T20:33:17.554Z,19.50
2018-02-18T20:35:45.821Z,20.47
2018-02-18T20:38:14.108Z,19.48
2018-02-18T20:40:42.379Z,19.07
2018-02-18T20:43:10.646Z,20.47
2018-02-18T20:45:38.898Z,19.97
2018-02-18T20:48:07.950Z,18.50
2018-02-18T20:50:36.329Z,20.77
2018-02-18T20:53:04.616Z,18.67
2018-02-18T20:55:32.881Z,19.30
2018-02-18T20:58:01.164Z,20.30
2018-02-18T21:00:29.415Z,20.20
2018-02-18T21:02:58.538Z,20.83
2018-02-18T21:05:26.786Z,19.80
2018-02-18T21:07:55.826Z,21.30
2018-02-18T21:10:24.660Z,21.10
2018-02-18T21:12:53.115Z,20.67
2018-02-18T21:15:21.365Z,20.07
2018-02-18T21:17:49.640Z,22.10
2018-02-18T21:20:18.694Z,21.70
2018-02-18T21:22:47.072Z,19.63
2018-02-18T21:25:15.351Z,23.93
2018-02-18T21:27:44.538Z,19.83
2018-02-18T21:30:12.791Z,20.60
2018-02-18T21:32:41.069Z,21.13
2018-02-18T21:35:09.323Z,21.47
2018-02-18T21:37:37.763Z,21.30
2018-02-18T21:40:06.795Z,21.07
2018-02-18T21:42:35.097Z,19.80
2018-02-18T21:45:03.382Z,21.03
2018-02-18T21:47:32.415Z,19.60
2018-02-18T21:50:00.810Z,21.10
2018-02-18T21:52:29.101Z,21.30
2018-02-18T21:54:57.340Z,21.80
2018-02-18T21:57:25.623Z,20.90
2018-02-18T21:59:53.895Z,20.53
2018-02-18T22:02:22.939Z,22.20
2018-02-18T22:04:51.201Z,20.13
2018-02-18T22:07:19.532Z,21.73
2018-02-18T22:09:47.776Z,21.50
2018-02-18T22:12:16.055Z,22.40
2018-02-18T22:14:44.306Z,21.87
2018-02-18T22:17:12.618Z,20.83
2018-02-18T22:19:40.897Z,22.03
2018-02-18T22:22:09.232Z,20.63
2018-02-18T22:24:37.498Z,21.30
2018-02-18T22:27:05.761Z,21.30
2018-02-18T22:29:34.024Z,20.50
2018-02-18T22:32:02.288Z,22.37
2018-02-18T22:34:30.546Z,21.10
2018-02-18T22:36:59.586Z,22.53
2018-02-18T22:39:27.859Z,20.80
2018-02-18T22:41:56.138Z,20.60
2018-02-18T22:44:24.395Z,20.10
2018-02-18T22:46:52.667Z,24.17
2018-02-18T22:49:20.986Z,21.27
2018-02-18T22:51:49.246Z,22.57
2018-02-18T22:54:17.547Z,22.93
2018-02-18T22:56:45.794Z,23.70
2018-02-18T22:59:15.132Z,23.73
2018-02-18T23:01:43.386Z,22.63
2018-02-18T23:04:11.675Z,23.23
2018-02-18T23:06:39.930Z,22.93
2018-02-18T23:09:10.003Z,22.80
2018-02-18T23:11:39.603Z,23.10
2018-02-18T23:14:07.874Z,22.00
2018-02-18T23:16:36.125Z,21.73
2018-02-18T23:19:05.273Z,23.43
2018-02-18T23:21:33.518Z,23.50
2018-02-18T23:24:01.810Z,21.33
2018-02-18T23:26:30.050Z,22.40
2018-02-18T23:28:58.315Z,23.00
2018-02-18T23:31:26.577Z,19.63
2018-02-18T23:33:54.958Z,23.20
2018-02-18T23:36:23.342Z,22.77
2018-02-18T23:38:51.622Z,23.53
2018-02-18T23:41:19.879Z,23.50
2018-02-18T23:43:48.133Z,24.37
2018-02-18T23:46:16.548Z,21.90
2018-02-18T23:48:44.949Z,20.90
2018-02-18T23:51:13.199Z,22.30
2018-02-18T23:53:41.514Z,24.27
2018-02-18T23:56:12.471Z,21.70
2018-02-18T23:58:40.958Z,22.80
